ES-0099 weather

MoiĆ  Les Umbertes
MoiĆ , Catalonia, Spain

Public forecast

Using degrees Celsius for public forecast. Weather courtesy of forecast.io.

METAR (pilot weather report)

Closest report is Sabadell Airport, 16.0 nm (29.6 km) S. Retrieved 2019/09/16 13:30 UTC (13 minutes ago):

LELL 161330Z 13008KT 080V170 9999 FEW070 27/13 Q1019

TAF (pilot weather forecast)

Closest forecast is Sabadell Airport, 16.0 nm (29.6 km) S. Retrieved 2019/09/16 15:27 UTC (0 seconds ago):

TAF LELL 161400Z 1615/1715 12008KT 9999 FEW070 TX29/1712Z TN17/1706Z BECMG 1618/1620 VRB03KT BECMG 1710/1712 13010KT